sensor_id;sensor_type;location;lat;lon;timestamp;P1;durP1;ratioP1;P2;durP2;ratioP2
46651;SDS011;32377;52.182;5.398;2023-04-19T00:00:03;16.55;;;10.30;;
46651;SDS011;32377;52.182;5.398;2023-04-19T00:02:33;17.13;;;10.60;;
46651;SDS011;32377;52.182;5.398;2023-04-19T00:04:59;16.63;;;10.65;;
46651;SDS011;32377;52.182;5.398;2023-04-19T00:07:25;19.17;;;10.45;;
46651;SDS011;32377;52.182;5.398;2023-04-19T00:09:51;17.15;;;10.73;;
46651;SDS011;32377;52.182;5.398;2023-04-19T00:12:16;18.67;;;10.27;;
46651;SDS011;32377;52.182;5.398;2023-04-19T00:14:42;17.15;;;11.10;;
46651;SDS011;32377;52.182;5.398;2023-04-19T00:17:08;17.33;;;10.77;;
46651;SDS011;32377;52.182;5.398;2023-04-19T00:19:35;16.92;;;10.95;;
46651;SDS011;32377;52.182;5.398;2023-04-19T00:22:01;16.17;;;11.20;;
46651;SDS011;32377;52.182;5.398;2023-04-19T00:24:27;18.88;;;11.05;;
46651;SDS011;32377;52.182;5.398;2023-04-19T00:26:52;18.65;;;11.25;;
46651;SDS011;32377;52.182;5.398;2023-04-19T00:29:18;17.05;;;10.98;;
46651;SDS011;32377;52.182;5.398;2023-04-19T00:31:43;16.58;;;11.10;;
46651;SDS011;32377;52.182;5.398;2023-04-19T00:34:09;14.88;;;10.88;;
46651;SDS011;32377;52.182;5.398;2023-04-19T00:36:35;19.25;;;11.70;;
46651;SDS011;32377;52.182;5.398;2023-04-19T00:39:01;19.73;;;11.57;;
46651;SDS011;32377;52.182;5.398;2023-04-19T00:41:27;18.52;;;11.85;;
46651;SDS011;32377;52.182;5.398;2023-04-19T00:43:53;17.67;;;11.70;;
46651;SDS011;32377;52.182;5.398;2023-04-19T00:46:18;21.42;;;11.32;;
46651;SDS011;32377;52.182;5.398;2023-04-19T00:48:45;17.05;;;12.18;;
46651;SDS011;32377;52.182;5.398;2023-04-19T00:51:11;16.95;;;12.07;;
46651;SDS011;32377;52.182;5.398;2023-04-19T00:53:37;20.65;;;12.55;;
46651;SDS011;32377;52.182;5.398;2023-04-19T00:56:05;18.25;;;12.82;;
46651;SDS011;32377;52.182;5.398;2023-04-19T00:58:31;18.55;;;12.77;;
46651;SDS011;32377;52.182;5.398;2023-04-19T01:00:57;19.10;;;12.38;;
46651;SDS011;32377;52.182;5.398;2023-04-19T01:03:23;20.95;;;12.90;;
46651;SDS011;32377;52.182;5.398;2023-04-19T01:05:51;19.70;;;12.00;;
46651;SDS011;32377;52.182;5.398;2023-04-19T01:08:17;18.98;;;12.07;;
46651;SDS011;32377;52.182;5.398;2023-04-19T01:10:42;21.00;;;13.93;;
46651;SDS011;32377;52.182;5.398;2023-04-19T01:13:08;22.52;;;13.60;;
46651;SDS011;32377;52.182;5.398;2023-04-19T01:15:34;22.35;;;13.15;;
46651;SDS011;32377;52.182;5.398;2023-04-19T01:18:00;18.27;;;12.75;;
46651;SDS011;32377;52.182;5.398;2023-04-19T01:20:26;16.10;;;12.48;;
46651;SDS011;32377;52.182;5.398;2023-04-19T01:22:52;20.48;;;13.65;;
46651;SDS011;32377;52.182;5.398;2023-04-19T01:25:17;19.10;;;12.77;;
46651;SDS011;32377;52.182;5.398;2023-04-19T01:27:43;21.15;;;13.05;;
46651;SDS011;32377;52.182;5.398;2023-04-19T01:30:09;21.95;;;13.45;;
46651;SDS011;32377;52.182;5.398;2023-04-19T01:32:34;20.13;;;13.18;;
46651;SDS011;32377;52.182;5.398;2023-04-19T01:35:00;21.63;;;13.70;;
46651;SDS011;32377;52.182;5.398;2023-04-19T01:37:26;20.63;;;13.48;;
46651;SDS011;32377;52.182;5.398;2023-04-19T01:39:51;21.15;;;13.27;;
46651;SDS011;32377;52.182;5.398;2023-04-19T01:42:17;22.52;;;14.45;;
46651;SDS011;32377;52.182;5.398;2023-04-19T01:44:42;23.92;;;14.82;;
46651;SDS011;32377;52.182;5.398;2023-04-19T01:47:08;23.02;;;14.65;;
46651;SDS011;32377;52.182;5.398;2023-04-19T01:49:33;25.60;;;13.15;;
46651;SDS011;32377;52.182;5.398;2023-04-19T01:51:59;21.85;;;13.88;;
46651;SDS011;32377;52.182;5.398;2023-04-19T01:54:25;21.58;;;13.88;;
46651;SDS011;32377;52.182;5.398;2023-04-19T01:56:51;21.50;;;13.70;;
46651;SDS011;32377;52.182;5.398;2023-04-19T01:59:16;20.48;;;13.52;;
46651;SDS011;32377;52.182;5.398;2023-04-19T02:01:42;23.80;;;13.80;;
46651;SDS011;32377;52.182;5.398;2023-04-19T02:04:07;20.30;;;13.82;;
46651;SDS011;32377;52.182;5.398;2023-04-19T02:06:33;21.38;;;13.65;;
46651;SDS011;32377;52.182;5.398;2023-04-19T02:08:59;18.83;;;13.68;;
46651;SDS011;32377;52.182;5.398;2023-04-19T02:11:24;23.02;;;13.35;;
46651;SDS011;32377;52.182;5.398;2023-04-19T02:13:50;25.55;;;13.45;;
46651;SDS011;32377;52.182;5.398;2023-04-19T02:16:15;21.95;;;12.90;;
46651;SDS011;32377;52.182;5.398;2023-04-19T02:18:41;17.90;;;12.52;;
46651;SDS011;32377;52.182;5.398;2023-04-19T02:21:07;21.20;;;13.88;;
46651;SDS011;32377;52.182;5.398;2023-04-19T02:23:33;21.75;;;13.90;;
46651;SDS011;32377;52.182;5.398;2023-04-19T02:25:59;19.73;;;12.82;;
46651;SDS011;32377;52.182;5.398;2023-04-19T02:28:27;21.48;;;12.93;;
46651;SDS011;32377;52.182;5.398;2023-04-19T02:30:53;22.90;;;13.18;;
46651;SDS011;32377;52.182;5.398;2023-04-19T02:33:20;17.05;;;12.45;;
46651;SDS011;32377;52.182;5.398;2023-04-19T02:35:46;19.92;;;12.30;;
46651;SDS011;32377;52.182;5.398;2023-04-19T02:38:12;19.38;;;12.75;;
46651;SDS011;32377;52.182;5.398;2023-04-19T02:40:37;19.35;;;11.90;;
46651;SDS011;32377;52.182;5.398;2023-04-19T02:43:03;22.42;;;13.70;;
46651;SDS011;32377;52.182;5.398;2023-04-19T02:45:28;18.60;;;12.35;;
46651;SDS011;32377;52.182;5.398;2023-04-19T02:47:54;18.02;;;12.73;;
46651;SDS011;32377;52.182;5.398;2023-04-19T02:50:20;18.33;;;12.45;;
46651;SDS011;32377;52.182;5.398;2023-04-19T02:52:45;19.40;;;12.63;;
46651;SDS011;32377;52.182;5.398;2023-04-19T02:55:11;18.55;;;11.98;;
46651;SDS011;32377;52.182;5.398;2023-04-19T02:57:36;18.42;;;11.82;;
46651;SDS011;32377;52.182;5.398;2023-04-19T03:00:02;19.63;;;12.43;;
46651;SDS011;32377;52.182;5.398;2023-04-19T03:02:29;18.65;;;12.15;;
46651;SDS011;32377;52.182;5.398;2023-04-19T03:04:55;18.17;;;11.27;;
46651;SDS011;32377;52.182;5.398;2023-04-19T03:07:21;19.88;;;12.63;;
46651;SDS011;32377;52.182;5.398;2023-04-19T03:09:47;15.80;;;11.13;;
46651;SDS011;32377;52.182;5.398;2023-04-19T03:12:12;17.38;;;11.70;;
46651;SDS011;32377;52.182;5.398;2023-04-19T03:14:38;22.77;;;11.77;;
46651;SDS011;32377;52.182;5.398;2023-04-19T03:17:03;16.52;;;10.82;;
46651;SDS011;32377;52.182;5.398;2023-04-19T03:19:29;16.50;;;10.65;;
46651;SDS011;32377;52.182;5.398;2023-04-19T03:21:55;15.77;;;10.88;;
46651;SDS011;32377;52.182;5.398;2023-04-19T03:24:27;15.50;;;10.93;;
46651;SDS011;32377;52.182;5.398;2023-04-19T03:26:53;14.70;;;10.50;;
46651;SDS011;32377;52.182;5.398;2023-04-19T03:29:19;21.73;;;10.60;;
46651;SDS011;32377;52.182;5.398;2023-04-19T03:31:45;16.48;;;10.95;;
46651;SDS011;32377;52.182;5.398;2023-04-19T03:34:11;16.67;;;10.45;;
46651;SDS011;32377;52.182;5.398;2023-04-19T03:36:37;15.55;;;9.95;;
46651;SDS011;32377;52.182;5.398;2023-04-19T03:39:04;15.38;;;9.80;;
46651;SDS011;32377;52.182;5.398;2023-04-19T03:41:29;18.20;;;10.02;;
46651;SDS011;32377;52.182;5.398;2023-04-19T03:43:55;14.38;;;10.25;;
46651;SDS011;32377;52.182;5.398;2023-04-19T03:46:22;14.20;;;9.30;;
46651;SDS011;32377;52.182;5.398;2023-04-19T03:48:48;19.58;;;11.30;;
46651;SDS011;32377;52.182;5.398;2023-04-19T03:51:14;16.35;;;10.00;;
46651;SDS011;32377;52.182;5.398;2023-04-19T03:53:40;17.90;;;9.88;;
46651;SDS011;32377;52.182;5.398;2023-04-19T03:59:17;19.70;;;10.27;;
46651;SDS011;32377;52.182;5.398;2023-04-19T04:01:42;15.20;;;10.18;;
46651;SDS011;32377;52.182;5.398;2023-04-19T04:04:08;14.48;;;9.82;;
46651;SDS011;32377;52.182;5.398;2023-04-19T04:06:34;16.83;;;10.82;;
46651;SDS011;32377;52.182;5.398;2023-04-19T04:08:59;16.13;;;10.57;;
46651;SDS011;32377;52.182;5.398;2023-04-19T04:11:25;19.95;;;10.07;;
46651;SDS011;32377;52.182;5.398;2023-04-19T04:13:51;15.88;;;10.07;;
46651;SDS011;32377;52.182;5.398;2023-04-19T04:16:16;16.25;;;10.73;;
46651;SDS011;32377;52.182;5.398;2023-04-19T04:18:42;20.70;;;10.05;;
46651;SDS011;32377;52.182;5.398;2023-04-19T04:21:07;19.00;;;10.15;;
46651;SDS011;32377;52.182;5.398;2023-04-19T04:23:33;15.93;;;10.27;;
46651;SDS011;32377;52.182;5.398;2023-04-19T04:25:59;17.13;;;10.80;;
46651;SDS011;32377;52.182;5.398;2023-04-19T04:28:25;15.57;;;10.75;;
46651;SDS011;32377;52.182;5.398;2023-04-19T04:30:52;18.27;;;11.00;;
46651;SDS011;32377;52.182;5.398;2023-04-19T04:33:22;15.43;;;10.80;;
46651;SDS011;32377;52.182;5.398;2023-04-19T04:35:51;15.23;;;9.75;;
46651;SDS011;32377;52.182;5.398;2023-04-19T04:38:21;16.40;;;10.75;;
46651;SDS011;32377;52.182;5.398;2023-04-19T04:40:50;19.50;;;11.02;;
46651;SDS011;32377;52.182;5.398;2023-04-19T04:43:18;17.23;;;11.02;;
46651;SDS011;32377;52.182;5.398;2023-04-19T04:45:45;15.30;;;9.95;;
46651;SDS011;32377;52.182;5.398;2023-04-19T04:48:10;20.13;;;10.10;;
46651;SDS011;32377;52.182;5.398;2023-04-19T04:50:36;17.15;;;10.57;;
46651;SDS011;32377;52.182;5.398;2023-04-19T04:53:02;18.85;;;10.98;;
46651;SDS011;32377;52.182;5.398;2023-04-19T04:55:27;17.92;;;9.88;;
46651;SDS011;32377;52.182;5.398;2023-04-19T04:57:53;18.75;;;10.73;;
46651;SDS011;32377;52.182;5.398;2023-04-19T05:00:18;20.38;;;11.60;;
46651;SDS011;32377;52.182;5.398;2023-04-19T05:02:44;16.48;;;10.93;;
46651;SDS011;32377;52.182;5.398;2023-04-19T05:05:10;16.58;;;10.25;;
46651;SDS011;32377;52.182;5.398;2023-04-19T05:07:35;19.52;;;10.40;;
46651;SDS011;32377;52.182;5.398;2023-04-19T05:10:01;17.38;;;10.57;;
46651;SDS011;32377;52.182;5.398;2023-04-19T05:12:26;17.25;;;10.23;;
46651;SDS011;32377;52.182;5.398;2023-04-19T05:14:52;16.25;;;11.00;;
46651;SDS011;32377;52.182;5.398;2023-04-19T05:17:17;20.02;;;9.57;;
46651;SDS011;32377;52.182;5.398;2023-04-19T05:19:43;17.05;;;10.75;;
46651;SDS011;32377;52.182;5.398;2023-04-19T05:22:09;16.15;;;10.63;;
46651;SDS011;32377;52.182;5.398;2023-04-19T05:24:34;17.40;;;9.88;;
46651;SDS011;32377;52.182;5.398;2023-04-19T05:27:00;15.63;;;9.25;;
46651;SDS011;32377;52.182;5.398;2023-04-19T05:29:25;15.35;;;10.10;;
46651;SDS011;32377;52.182;5.398;2023-04-19T05:31:51;14.88;;;9.38;;
46651;SDS011;32377;52.182;5.398;2023-04-19T05:34:17;14.50;;;9.05;;
46651;SDS011;32377;52.182;5.398;2023-04-19T05:36:42;12.73;;;8.70;;
46651;SDS011;32377;52.182;5.398;2023-04-19T05:39:08;15.45;;;9.32;;
46651;SDS011;32377;52.182;5.398;2023-04-19T05:41:33;15.05;;;9.55;;
46651;SDS011;32377;52.182;5.398;2023-04-19T05:43:59;15.93;;;9.38;;
46651;SDS011;32377;52.182;5.398;2023-04-19T05:46:25;15.77;;;10.57;;
46651;SDS011;32377;52.182;5.398;2023-04-19T05:48:51;15.35;;;8.95;;
46651;SDS011;32377;52.182;5.398;2023-04-19T05:51:16;16.67;;;9.45;;
46651;SDS011;32377;52.182;5.398;2023-04-19T05:53:43;13.52;;;8.23;;
46651;SDS011;32377;52.182;5.398;2023-04-19T05:56:09;16.45;;;9.45;;
46651;SDS011;32377;52.182;5.398;2023-04-19T05:58:35;12.43;;;8.38;;
46651;SDS011;32377;52.182;5.398;2023-04-19T06:01:04;17.63;;;8.80;;
46651;SDS011;32377;52.182;5.398;2023-04-19T06:03:30;14.60;;;8.48;;
46651;SDS011;32377;52.182;5.398;2023-04-19T06:05:57;13.50;;;8.23;;
46651;SDS011;32377;52.182;5.398;2023-04-19T06:08:26;14.38;;;8.68;;
46651;SDS011;32377;52.182;5.398;2023-04-19T06:10:52;17.10;;;8.35;;
46651;SDS011;32377;52.182;5.398;2023-04-19T06:13:19;15.32;;;8.05;;
46651;SDS011;32377;52.182;5.398;2023-04-19T06:15:45;13.65;;;8.32;;
46651;SDS011;32377;52.182;5.398;2023-04-19T06:18:11;14.75;;;8.48;;
46651;SDS011;32377;52.182;5.398;2023-04-19T06:20:37;15.85;;;7.97;;
46651;SDS011;32377;52.182;5.398;2023-04-19T06:23:04;16.75;;;7.78;;
46651;SDS011;32377;52.182;5.398;2023-04-19T06:25:31;14.73;;;8.05;;
46651;SDS011;32377;52.182;5.398;2023-04-19T06:27:57;11.27;;;7.28;;
46651;SDS011;32377;52.182;5.398;2023-04-19T06:30:23;13.80;;;6.47;;
46651;SDS011;32377;52.182;5.398;2023-04-19T06:32:49;12.27;;;6.28;;
46651;SDS011;32377;52.182;5.398;2023-04-19T06:35:14;9.75;;;6.80;;
46651;SDS011;32377;52.182;5.398;2023-04-19T06:37:40;11.48;;;6.35;;
46651;SDS011;32377;52.182;5.398;2023-04-19T06:40:06;13.32;;;6.10;;
46651;SDS011;32377;52.182;5.398;2023-04-19T06:42:35;15.20;;;6.13;;
46651;SDS011;32377;52.182;5.398;2023-04-19T06:45:01;12.93;;;6.28;;
46651;SDS011;32377;52.182;5.398;2023-04-19T06:47:28;8.73;;;5.65;;
46651;SDS011;32377;52.182;5.398;2023-04-19T06:49:54;7.78;;;5.72;;
46651;SDS011;32377;52.182;5.398;2023-04-19T06:52:20;10.38;;;5.80;;
46651;SDS011;32377;52.182;5.398;2023-04-19T06:54:49;8.73;;;5.15;;
46651;SDS011;32377;52.182;5.398;2023-04-19T06:57:16;8.55;;;5.35;;
46651;SDS011;32377;52.182;5.398;2023-04-19T06:59:42;8.48;;;5.15;;
46651;SDS011;32377;52.182;5.398;2023-04-19T07:02:08;10.45;;;5.00;;
46651;SDS011;32377;52.182;5.398;2023-04-19T07:04:34;9.88;;;5.10;;
46651;SDS011;32377;52.182;5.398;2023-04-19T07:07:01;6.72;;;4.68;;
46651;SDS011;32377;52.182;5.398;2023-04-19T07:09:27;6.97;;;4.60;;
46651;SDS011;32377;52.182;5.398;2023-04-19T07:11:52;11.35;;;4.80;;
46651;SDS011;32377;52.182;5.398;2023-04-19T07:14:18;7.63;;;4.28;;
46651;SDS011;32377;52.182;5.398;2023-04-19T07:16:44;6.90;;;4.55;;
46651;SDS011;32377;52.182;5.398;2023-04-19T07:19:11;6.78;;;4.90;;
46651;SDS011;32377;52.182;5.398;2023-04-19T07:21:36;9.18;;;4.55;;
46651;SDS011;32377;52.182;5.398;2023-04-19T07:24:03;8.60;;;4.22;;
46651;SDS011;32377;52.182;5.398;2023-04-19T07:26:30;7.68;;;3.95;;
46651;SDS011;32377;52.182;5.398;2023-04-19T07:28:56;11.27;;;4.07;;
46651;SDS011;32377;52.182;5.398;2023-04-19T07:31:22;11.93;;;4.88;;
46651;SDS011;32377;52.182;5.398;2023-04-19T07:33:51;11.65;;;4.22;;
46651;SDS011;32377;52.182;5.398;2023-04-19T07:36:17;6.60;;;3.58;;
46651;SDS011;32377;52.182;5.398;2023-04-19T07:38:44;6.47;;;4.28;;
46651;SDS011;32377;52.182;5.398;2023-04-19T07:41:10;14.70;;;4.47;;
46651;SDS011;32377;52.182;5.398;2023-04-19T07:43:35;10.85;;;3.80;;
46651;SDS011;32377;52.182;5.398;2023-04-19T07:46:07;10.05;;;4.30;;
46651;SDS011;32377;52.182;5.398;2023-04-19T07:48:37;7.90;;;3.80;;
46651;SDS011;32377;52.182;5.398;2023-04-19T07:51:15;7.93;;;4.03;;
46651;SDS011;32377;52.182;5.398;2023-04-19T07:53:42;6.68;;;4.05;;
46651;SDS011;32377;52.182;5.398;2023-04-19T07:56:08;7.57;;;3.83;;
46651;SDS011;32377;52.182;5.398;2023-04-19T07:58:35;6.38;;;3.72;;
46651;SDS011;32377;52.182;5.398;2023-04-19T08:01:01;13.32;;;4.35;;
46651;SDS011;32377;52.182;5.398;2023-04-19T08:03:28;4.55;;;3.15;;
46651;SDS011;32377;52.182;5.398;2023-04-19T08:05:54;7.15;;;3.47;;
46651;SDS011;32377;52.182;5.398;2023-04-19T08:08:20;9.10;;;3.58;;
46651;SDS011;32377;52.182;5.398;2023-04-19T08:10:46;9.82;;;3.80;;
46651;SDS011;32377;52.182;5.398;2023-04-19T08:13:11;8.23;;;3.95;;
46651;SDS011;32377;52.182;5.398;2023-04-19T08:15:37;5.88;;;3.83;;
46651;SDS011;32377;52.182;5.398;2023-04-19T08:18:02;6.00;;;3.78;;
46651;SDS011;32377;52.182;5.398;2023-04-19T08:20:29;9.05;;;3.50;;
46651;SDS011;32377;52.182;5.398;2023-04-19T08:22:56;6.95;;;3.05;;
46651;SDS011;32377;52.182;5.398;2023-04-19T08:25:21;5.80;;;3.15;;
46651;SDS011;32377;52.182;5.398;2023-04-19T08:27:50;11.98;;;3.85;;
46651;SDS011;32377;52.182;5.398;2023-04-19T08:30:16;5.95;;;3.35;;
46651;SDS011;32377;52.182;5.398;2023-04-19T08:32:42;6.90;;;3.35;;
46651;SDS011;32377;52.182;5.398;2023-04-19T08:35:08;5.20;;;2.85;;
46651;SDS011;32377;52.182;5.398;2023-04-19T08:37:33;6.18;;;2.95;;
46651;SDS011;32377;52.182;5.398;2023-04-19T08:39:59;7.65;;;2.80;;
46651;SDS011;32377;52.182;5.398;2023-04-19T08:42:25;8.32;;;2.65;;
46651;SDS011;32377;52.182;5.398;2023-04-19T08:44:51;6.60;;;3.10;;
46651;SDS011;32377;52.182;5.398;2023-04-19T08:47:18;6.63;;;2.40;;
46651;SDS011;32377;52.182;5.398;2023-04-19T08:49:45;4.03;;;1.98;;
46651;SDS011;32377;52.182;5.398;2023-04-19T08:52:12;3.28;;;1.90;;
46651;SDS011;32377;52.182;5.398;2023-04-19T08:54:39;5.85;;;1.73;;
46651;SDS011;32377;52.182;5.398;2023-04-19T08:57:06;5.38;;;1.90;;
46651;SDS011;32377;52.182;5.398;2023-04-19T08:59:33;3.22;;;1.92;;
46651;SDS011;32377;52.182;5.398;2023-04-19T09:01:59;5.53;;;2.17;;
46651;SDS011;32377;52.182;5.398;2023-04-19T09:04:26;5.00;;;1.80;;
46651;SDS011;32377;52.182;5.398;2023-04-19T09:06:52;5.10;;;1.83;;
46651;SDS011;32377;52.182;5.398;2023-04-19T09:09:25;2.80;;;1.60;;
46651;SDS011;32377;52.182;5.398;2023-04-19T09:11:52;4.90;;;1.60;;
46651;SDS011;32377;52.182;5.398;2023-04-19T09:14:18;4.60;;;1.42;;
46651;SDS011;32377;52.182;5.398;2023-04-19T09:16:45;4.53;;;1.40;;
46651;SDS011;32377;52.182;5.398;2023-04-19T09:19:11;2.85;;;1.60;;
46651;SDS011;32377;52.182;5.398;2023-04-19T09:21:38;3.28;;;1.80;;
46651;SDS011;32377;52.182;5.398;2023-04-19T09:24:04;2.00;;;1.67;;
46651;SDS011;32377;52.182;5.398;2023-04-19T09:26:30;5.05;;;1.88;;
46651;SDS011;32377;52.182;5.398;2023-04-19T09:29:00;2.97;;;1.80;;
46651;SDS011;32377;52.182;5.398;2023-04-19T09:31:28;3.20;;;1.75;;
46651;SDS011;32377;52.182;5.398;2023-04-19T09:33:54;3.95;;;1.70;;
46651;SDS011;32377;52.182;5.398;2023-04-19T09:36:30;4.35;;;2.30;;
46651;SDS011;32377;52.182;5.398;2023-04-19T09:38:57;4.70;;;2.00;;
46651;SDS011;32377;52.182;5.398;2023-04-19T09:41:24;4.10;;;2.20;;
46651;SDS011;32377;52.182;5.398;2023-04-19T09:43:50;5.78;;;2.00;;
46651;SDS011;32377;52.182;5.398;2023-04-19T09:46:33;3.10;;;2.00;;
46651;SDS011;32377;52.182;5.398;2023-04-19T09:51:41;4.25;;;2.42;;
46651;SDS011;32377;52.182;5.398;2023-04-19T09:54:08;3.75;;;2.00;;
46651;SDS011;32377;52.182;5.398;2023-04-19T09:59:17;3.47;;;2.00;;
46651;SDS011;32377;52.182;5.398;2023-04-19T10:04:09;3.30;;;1.80;;
46651;SDS011;32377;52.182;5.398;2023-04-19T10:06:36;8.18;;;2.05;;
46651;SDS011;32377;52.182;5.398;2023-04-19T10:09:04;4.90;;;1.80;;
46651;SDS011;32377;52.182;5.398;2023-04-19T10:11:31;6.93;;;2.60;;
46651;SDS011;32377;52.182;5.398;2023-04-19T10:14:03;7.10;;;1.90;;
46651;SDS011;32377;52.182;5.398;2023-04-19T10:16:34;8.93;;;2.00;;
46651;SDS011;32377;52.182;5.398;2023-04-19T10:19:04;7.63;;;2.10;;
46651;SDS011;32377;52.182;5.398;2023-04-19T10:21:32;2.38;;;1.70;;
46651;SDS011;32377;52.182;5.398;2023-04-19T10:23:59;3.70;;;1.80;;
46651;SDS011;32377;52.182;5.398;2023-04-19T10:26:25;2.28;;;1.35;;
46651;SDS011;32377;52.182;5.398;2023-04-19T10:28:52;4.82;;;2.20;;
46651;SDS011;32377;52.182;5.398;2023-04-19T10:31:19;5.07;;;1.80;;
46651;SDS011;32377;52.182;5.398;2023-04-19T10:33:47;8.45;;;2.03;;
46651;SDS011;32377;52.182;5.398;2023-04-19T10:36:13;2.30;;;1.70;;
46651;SDS011;32377;52.182;5.398;2023-04-19T10:38:43;2.83;;;1.67;;
46651;SDS011;32377;52.182;5.398;2023-04-19T10:41:13;4.70;;;1.63;;
46651;SDS011;32377;52.182;5.398;2023-04-19T10:43:42;3.50;;;1.95;;
46651;SDS011;32377;52.182;5.398;2023-04-19T10:48:49;2.83;;;1.65;;
46651;SDS011;32377;52.182;5.398;2023-04-19T10:51:55;6.38;;;2.15;;
46651;SDS011;32377;52.182;5.398;2023-04-19T10:54:34;4.18;;;1.90;;
46651;SDS011;32377;52.182;5.398;2023-04-19T10:57:03;4.60;;;2.00;;
46651;SDS011;32377;52.182;5.398;2023-04-19T10:59:33;5.35;;;2.25;;
46651;SDS011;32377;52.182;5.398;2023-04-19T11:02:04;4.13;;;1.80;;
46651;SDS011;32377;52.182;5.398;2023-04-19T11:04:57;2.67;;;2.20;;
46651;SDS011;32377;52.182;5.398;2023-04-19T11:07:24;5.25;;;1.83;;
46651;SDS011;32377;52.182;5.398;2023-04-19T11:09:50;3.58;;;2.65;;
46651;SDS011;32377;52.182;5.398;2023-04-19T11:12:17;4.07;;;2.15;;
46651;SDS011;32377;52.182;5.398;2023-04-19T11:14:47;7.72;;;2.08;;
46651;SDS011;32377;52.182;5.398;2023-04-19T11:17:24;4.35;;;2.60;;
46651;SDS011;32377;52.182;5.398;2023-04-19T11:22:24;10.98;;;2.50;;
46651;SDS011;32377;52.182;5.398;2023-04-19T11:25:13;7.00;;;2.45;;
46651;SDS011;32377;52.182;5.398;2023-04-19T11:27:42;5.00;;;2.47;;
46651;SDS011;32377;52.182;5.398;2023-04-19T11:30:10;4.75;;;2.22;;
46651;SDS011;32377;52.182;5.398;2023-04-19T11:32:37;6.97;;;2.63;;
46651;SDS011;32377;52.182;5.398;2023-04-19T11:35:09;4.82;;;2.47;;
46651;SDS011;32377;52.182;5.398;2023-04-19T11:37:36;6.85;;;2.17;;
46651;SDS011;32377;52.182;5.398;2023-04-19T11:40:04;8.02;;;2.47;;
46651;SDS011;32377;52.182;5.398;2023-04-19T11:42:30;4.53;;;2.70;;
46651;SDS011;32377;52.182;5.398;2023-04-19T11:44:56;6.43;;;2.25;;
46651;SDS011;32377;52.182;5.398;2023-04-19T11:47:23;8.27;;;2.72;;
46651;SDS011;32377;52.182;5.398;2023-04-19T11:49:53;9.80;;;3.22;;
46651;SDS011;32377;52.182;5.398;2023-04-19T11:52:21;5.65;;;3.15;;
46651;SDS011;32377;52.182;5.398;2023-04-19T11:54:51;9.55;;;3.97;;
46651;SDS011;32377;52.182;5.398;2023-04-19T11:57:27;11.57;;;3.00;;
46651;SDS011;32377;52.182;5.398;2023-04-19T12:00:06;5.45;;;2.70;;
46651;SDS011;32377;52.182;5.398;2023-04-19T12:02:39;13.50;;;2.85;;
46651;SDS011;32377;52.182;5.398;2023-04-19T12:05:12;5.18;;;2.65;;
46651;SDS011;32377;52.182;5.398;2023-04-19T12:10:32;3.67;;;2.45;;
46651;SDS011;32377;52.182;5.398;2023-04-19T12:12:59;12.75;;;2.80;;
46651;SDS011;32377;52.182;5.398;2023-04-19T12:15:41;6.72;;;3.00;;
46651;SDS011;32377;52.182;5.398;2023-04-19T12:18:07;5.30;;;3.40;;
46651;SDS011;32377;52.182;5.398;2023-04-19T12:20:34;5.78;;;3.00;;
46651;SDS011;32377;52.182;5.398;2023-04-19T12:23:01;6.43;;;2.90;;
46651;SDS011;32377;52.182;5.398;2023-04-19T12:25:28;5.35;;;2.83;;
46651;SDS011;32377;52.182;5.398;2023-04-19T12:27:54;5.38;;;3.03;;
46651;SDS011;32377;52.182;5.398;2023-04-19T12:30:20;9.05;;;3.28;;
46651;SDS011;32377;52.182;5.398;2023-04-19T12:32:45;4.20;;;2.70;;
46651;SDS011;32377;52.182;5.398;2023-04-19T12:35:11;6.10;;;3.20;;
46651;SDS011;32377;52.182;5.398;2023-04-19T12:37:36;6.43;;;3.35;;
46651;SDS011;32377;52.182;5.398;2023-04-19T12:40:02;5.28;;;3.13;;
46651;SDS011;32377;52.182;5.398;2023-04-19T12:42:28;7.70;;;3.05;;
46651;SDS011;32377;52.182;5.398;2023-04-19T12:44:53;7.55;;;3.03;;
46651;SDS011;32377;52.182;5.398;2023-04-19T12:47:19;4.90;;;2.80;;
46651;SDS011;32377;52.182;5.398;2023-04-19T12:49:44;5.05;;;3.03;;
46651;SDS011;32377;52.182;5.398;2023-04-19T12:52:10;3.72;;;2.80;;
46651;SDS011;32377;52.182;5.398;2023-04-19T12:54:35;8.57;;;2.72;;
46651;SDS011;32377;52.182;5.398;2023-04-19T12:57:01;4.60;;;2.67;;
46651;SDS011;32377;52.182;5.398;2023-04-19T12:59:27;5.65;;;3.05;;
46651;SDS011;32377;52.182;5.398;2023-04-19T13:01:52;6.93;;;3.03;;
46651;SDS011;32377;52.182;5.398;2023-04-19T13:04:18;4.35;;;3.00;;
46651;SDS011;32377;52.182;5.398;2023-04-19T13:06:43;4.88;;;2.67;;
46651;SDS011;32377;52.182;5.398;2023-04-19T13:09:09;6.82;;;2.95;;
46651;SDS011;32377;52.182;5.398;2023-04-19T13:11:35;9.85;;;3.47;;
46651;SDS011;32377;52.182;5.398;2023-04-19T13:14:01;5.93;;;3.38;;
46651;SDS011;32377;52.182;5.398;2023-04-19T13:16:27;8.63;;;3.47;;
46651;SDS011;32377;52.182;5.398;2023-04-19T13:18:52;8.40;;;3.15;;
46651;SDS011;32377;52.182;5.398;2023-04-19T13:21:19;6.13;;;3.30;;
46651;SDS011;32377;52.182;5.398;2023-04-19T13:23:45;5.18;;;3.13;;
46651;SDS011;32377;52.182;5.398;2023-04-19T13:26:10;8.23;;;3.58;;
46651;SDS011;32377;52.182;5.398;2023-04-19T13:28:36;6.38;;;2.83;;
46651;SDS011;32377;52.182;5.398;2023-04-19T13:31:02;4.90;;;2.83;;
46651;SDS011;32377;52.182;5.398;2023-04-19T13:33:28;5.30;;;2.83;;
46651;SDS011;32377;52.182;5.398;2023-04-19T13:35:54;7.07;;;3.05;;
46651;SDS011;32377;52.182;5.398;2023-04-19T13:38:20;4.82;;;2.97;;
46651;SDS011;32377;52.182;5.398;2023-04-19T13:40:46;11.45;;;3.20;;
46651;SDS011;32377;52.182;5.398;2023-04-19T13:43:12;7.10;;;2.50;;
46651;SDS011;32377;52.182;5.398;2023-04-19T13:45:37;6.55;;;2.65;;
46651;SDS011;32377;52.182;5.398;2023-04-19T13:48:03;6.97;;;3.00;;
46651;SDS011;32377;52.182;5.398;2023-04-19T13:50:29;4.68;;;2.50;;
46651;SDS011;32377;52.182;5.398;2023-04-19T13:52:55;4.28;;;2.60;;
46651;SDS011;32377;52.182;5.398;2023-04-19T13:55:20;6.82;;;2.83;;
46651;SDS011;32377;52.182;5.398;2023-04-19T13:57:46;7.05;;;2.63;;
46651;SDS011;32377;52.182;5.398;2023-04-19T14:00:12;5.38;;;2.80;;
46651;SDS011;32377;52.182;5.398;2023-04-19T14:02:38;6.75;;;2.55;;
46651;SDS011;32377;52.182;5.398;2023-04-19T14:05:03;5.50;;;2.70;;
46651;SDS011;32377;52.182;5.398;2023-04-19T14:07:29;6.45;;;2.60;;
46651;SDS011;32377;52.182;5.398;2023-04-19T14:09:55;4.57;;;2.58;;
46651;SDS011;32377;52.182;5.398;2023-04-19T14:12:20;8.30;;;2.28;;
46651;SDS011;32377;52.182;5.398;2023-04-19T14:14:46;5.05;;;2.60;;
46651;SDS011;32377;52.182;5.398;2023-04-19T14:17:11;6.05;;;2.70;;
46651;SDS011;32377;52.182;5.398;2023-04-19T14:19:37;8.48;;;2.70;;
46651;SDS011;32377;52.182;5.398;2023-04-19T14:22:02;3.85;;;2.45;;
46651;SDS011;32377;52.182;5.398;2023-04-19T14:24:28;6.07;;;3.08;;
46651;SDS011;32377;52.182;5.398;2023-04-19T14:26:54;7.75;;;2.70;;
46651;SDS011;32377;52.182;5.398;2023-04-19T14:29:19;4.93;;;2.72;;
46651;SDS011;32377;52.182;5.398;2023-04-19T14:31:45;3.30;;;2.58;;
46651;SDS011;32377;52.182;5.398;2023-04-19T14:34:10;7.63;;;2.63;;
46651;SDS011;32377;52.182;5.398;2023-04-19T14:36:36;8.30;;;3.15;;
46651;SDS011;32377;52.182;5.398;2023-04-19T14:39:01;4.63;;;2.60;;
46651;SDS011;32377;52.182;5.398;2023-04-19T14:41:27;5.47;;;2.72;;
46651;SDS011;32377;52.182;5.398;2023-04-19T14:43:53;6.10;;;2.75;;
46651;SDS011;32377;52.182;5.398;2023-04-19T14:46:20;8.70;;;3.58;;
46651;SDS011;32377;52.182;5.398;2023-04-19T14:48:45;6.57;;;2.65;;
46651;SDS011;32377;52.182;5.398;2023-04-19T14:51:11;5.50;;;2.78;;